sensor_id;sensor_type;location;lat;lon;timestamp;pressure;altitude;pressure_sealevel;temperature;humidity
71778;BME280;59609;52.430;4.668;2024-03-25T00:01:53;100775.56;;;5.48;100.00
71778;BME280;59609;52.430;4.668;2024-03-25T00:04:19;100750.75;;;5.30;100.00
71778;BME280;59609;52.430;4.668;2024-03-25T00:06:46;100762.75;;;5.48;100.00
71778;BME280;59609;52.430;4.668;2024-03-25T00:09:11;100777.53;;;5.36;100.00
71778;BME280;59609;52.430;4.668;2024-03-25T00:11:40;100743.22;;;5.23;100.00
71778;BME280;59609;52.430;4.668;2024-03-25T00:14:05;100785.50;;;5.49;100.00
71778;BME280;59609;52.430;4.668;2024-03-25T00:16:31;100767.47;;;5.37;100.00
71778;BME280;59609;52.430;4.668;2024-03-25T00:18:56;100775.97;;;5.43;100.00
71778;BME280;59609;52.430;4.668;2024-03-25T00:21:21;100778.44;;;5.46;100.00
71778;BME280;59609;52.430;4.668;2024-03-25T00:23:47;100770.91;;;5.39;100.00
71778;BME280;59609;52.430;4.668;2024-03-25T00:26:12;100780.97;;;5.38;100.00
71778;BME280;59609;52.430;4.668;2024-03-25T00:28:38;100778.13;;;5.40;100.00
71778;BME280;59609;52.430;4.668;2024-03-25T00:31:04;100776.38;;;5.39;100.00
71778;BME280;59609;52.430;4.668;2024-03-25T00:33:29;100778.31;;;5.27;100.00
71778;BME280;59609;52.430;4.668;2024-03-25T00:35:54;100763.75;;;5.17;100.00
71778;BME280;59609;52.430;4.668;2024-03-25T00:38:20;100776.38;;;5.18;100.00
71778;BME280;59609;52.430;4.668;2024-03-25T00:40:45;100789.00;;;5.09;100.00
71778;BME280;59609;52.430;4.668;2024-03-25T00:43:10;100768.09;;;4.99;100.00
71778;BME280;59609;52.430;4.668;2024-03-25T00:45:36;100777.66;;;5.14;100.00
71778;BME280;59609;52.430;4.668;2024-03-25T00:48:02;100778.78;;;5.11;100.00
71778;BME280;59609;52.430;4.668;2024-03-25T00:50:27;100767.81;;;5.02;100.00
71778;BME280;59609;52.430;4.668;2024-03-25T00:52:53;100746.84;;;4.82;100.00
71778;BME280;59609;52.430;4.668;2024-03-25T00:55:18;100775.22;;;4.90;100.00
71778;BME280;59609;52.430;4.668;2024-03-25T00:57:44;100761.28;;;4.73;100.00
71778;BME280;59609;52.430;4.668;2024-03-25T01:00:10;100768.47;;;4.74;100.00
71778;BME280;59609;52.430;4.668;2024-03-25T01:02:35;100769.22;;;4.76;100.00
71778;BME280;59609;52.430;4.668;2024-03-25T01:05:01;100766.84;;;4.71;100.00
71778;BME280;59609;52.430;4.668;2024-03-25T01:07:27;100770.72;;;4.68;100.00
71778;BME280;59609;52.430;4.668;2024-03-25T01:09:53;100774.94;;;4.73;100.00
71778;BME280;59609;52.430;4.668;2024-03-25T01:12:18;100775.38;;;4.78;100.00
71778;BME280;59609;52.430;4.668;2024-03-25T01:14:43;100781.78;;;4.88;100.00
71778;BME280;59609;52.430;4.668;2024-03-25T01:17:09;100767.63;;;4.73;100.00
71778;BME280;59609;52.430;4.668;2024-03-25T01:19:34;100770.06;;;4.76;100.00
71778;BME280;59609;52.430;4.668;2024-03-25T01:21:59;100781.00;;;4.76;100.00
71778;BME280;59609;52.430;4.668;2024-03-25T01:24:25;100778.88;;;4.80;100.00
71778;BME280;59609;52.430;4.668;2024-03-25T01:26:50;100777.38;;;4.76;100.00
71778;BME280;59609;52.430;4.668;2024-03-25T01:29:16;100776.78;;;4.72;100.00
71778;BME280;59609;52.430;4.668;2024-03-25T01:31:42;100763.19;;;4.61;100.00
71778;BME280;59609;52.430;4.668;2024-03-25T01:34:07;100778.91;;;4.68;100.00
71778;BME280;59609;52.430;4.668;2024-03-25T01:36:33;100767.78;;;4.60;100.00
71778;BME280;59609;52.430;4.668;2024-03-25T01:39:02;100784.38;;;4.68;100.00
71778;BME280;59609;52.430;4.668;2024-03-25T01:41:30;100791.16;;;4.74;100.00
71778;BME280;59609;52.430;4.668;2024-03-25T01:43:55;100777.66;;;4.73;100.00
71778;BME280;59609;52.430;4.668;2024-03-25T01:46:23;100775.38;;;4.78;100.00
71778;BME280;59609;52.430;4.668;2024-03-25T01:48:49;100779.59;;;4.82;100.00
71778;BME280;59609;52.430;4.668;2024-03-25T01:51:17;100765.06;;;4.81;100.00
71778;BME280;59609;52.430;4.668;2024-03-25T01:53:43;100779.19;;;4.86;100.00
71778;BME280;59609;52.430;4.668;2024-03-25T01:56:10;100769.53;;;4.82;100.00
71778;BME280;59609;52.430;4.668;2024-03-25T01:58:37;100779.28;;;4.96;100.00
71778;BME280;59609;52.430;4.668;2024-03-25T02:01:03;100785.44;;;4.98;100.00
71778;BME280;59609;52.430;4.668;2024-03-25T02:03:29;100782.00;;;4.96;100.00
71778;BME280;59609;52.430;4.668;2024-03-25T02:05:59;100764.75;;;4.95;100.00
71778;BME280;59609;52.430;4.668;2024-03-25T02:08:26;100772.66;;;4.98;100.00
71778;BME280;59609;52.430;4.668;2024-03-25T02:10:54;100781.47;;;5.02;100.00
71778;BME280;59609;52.430;4.668;2024-03-25T02:13:19;100763.59;;;4.98;100.00
71778;BME280;59609;52.430;4.668;2024-03-25T02:15:45;100766.22;;;4.99;100.00
71778;BME280;59609;52.430;4.668;2024-03-25T02:18:10;100776.28;;;4.99;100.00
71778;BME280;59609;52.430;4.668;2024-03-25T02:20:36;100782.59;;;4.99;100.00
71778;BME280;59609;52.430;4.668;2024-03-25T02:23:02;100775.56;;;4.97;100.00
71778;BME280;59609;52.430;4.668;2024-03-25T02:25:27;100776.00;;;5.02;100.00
71778;BME280;59609;52.430;4.668;2024-03-25T02:27:53;100780.81;;;5.09;100.00
71778;BME280;59609;52.430;4.668;2024-03-25T02:30:18;100771.25;;;5.04;100.00
71778;BME280;59609;52.430;4.668;2024-03-25T02:32:43;100780.38;;;5.14;100.00
71778;BME280;59609;52.430;4.668;2024-03-25T02:35:12;100745.91;;;4.92;100.00
71778;BME280;59609;52.430;4.668;2024-03-25T02:37:39;100772.06;;;4.95;100.00
71778;BME280;59609;52.430;4.668;2024-03-25T02:40:07;100760.63;;;4.80;100.00
71778;BME280;59609;52.430;4.668;2024-03-25T02:42:34;100751.09;;;4.75;100.00
71778;BME280;59609;52.430;4.668;2024-03-25T02:45:00;100751.31;;;4.83;100.00
71778;BME280;59609;52.430;4.668;2024-03-25T02:47:26;100748.69;;;4.81;100.00
71778;BME280;59609;52.430;4.668;2024-03-25T02:49:51;100755.03;;;4.82;100.00
71778;BME280;59609;52.430;4.668;2024-03-25T02:52:18;100752.94;;;4.74;100.00
71778;BME280;59609;52.430;4.668;2024-03-25T02:54:44;100744.97;;;4.61;100.00
71778;BME280;59609;52.430;4.668;2024-03-25T02:57:09;100750.38;;;4.73;100.00
71778;BME280;59609;52.430;4.668;2024-03-25T02:59:35;100744.97;;;4.61;100.00
71778;BME280;59609;52.430;4.668;2024-03-25T03:02:00;100755.88;;;4.61;100.00
71778;BME280;59609;52.430;4.668;2024-03-25T03:04:26;100750.69;;;4.58;100.00
71778;BME280;59609;52.430;4.668;2024-03-25T03:06:51;100746.41;;;4.45;100.00
71778;BME280;59609;52.430;4.668;2024-03-25T03:09:16;100727.59;;;4.31;100.00
71778;BME280;59609;52.430;4.668;2024-03-25T03:11:42;100739.28;;;4.22;100.00
71778;BME280;59609;52.430;4.668;2024-03-25T03:14:07;100730.16;;;4.11;100.00
71778;BME280;59609;52.430;4.668;2024-03-25T03:16:32;100753.09;;;4.09;100.00
71778;BME280;59609;52.430;4.668;2024-03-25T03:18:58;100748.41;;;4.00;100.00
71778;BME280;59609;52.430;4.668;2024-03-25T03:21:23;100748.78;;;3.95;100.00
71778;BME280;59609;52.430;4.668;2024-03-25T03:23:48;100693.13;;;3.66;100.00
71778;BME280;59609;52.430;4.668;2024-03-25T03:26:14;100733.09;;;3.77;100.00
71778;BME280;59609;52.430;4.668;2024-03-25T03:28:40;100743.38;;;3.73;100.00
71778;BME280;59609;52.430;4.668;2024-03-25T03:31:05;100741.41;;;3.64;100.00
71778;BME280;59609;52.430;4.668;2024-03-25T03:33:31;100738.81;;;3.51;100.00
71778;BME280;59609;52.430;4.668;2024-03-25T03:35:56;100744.63;;;3.58;100.00
71778;BME280;59609;52.430;4.668;2024-03-25T03:38:22;100746.25;;;3.49;100.00
71778;BME280;59609;52.430;4.668;2024-03-25T03:41:02;100737.47;;;3.35;100.00
71778;BME280;59609;52.430;4.668;2024-03-25T03:43:27;100730.16;;;3.24;100.00
71778;BME280;59609;52.430;4.668;2024-03-25T03:45:53;100738.22;;;3.26;100.00
71778;BME280;59609;52.430;4.668;2024-03-25T03:48:18;100727.56;;;3.23;100.00
71778;BME280;59609;52.430;4.668;2024-03-25T03:50:44;100736.22;;;3.17;100.00
71778;BME280;59609;52.430;4.668;2024-03-25T03:53:09;100730.03;;;3.15;100.00
71778;BME280;59609;52.430;4.668;2024-03-25T03:55:35;100722.72;;;3.04;100.00
71778;BME280;59609;52.430;4.668;2024-03-25T03:58:01;100680.53;;;2.76;100.00
71778;BME280;59609;52.430;4.668;2024-03-25T04:00:27;100727.78;;;2.97;100.00
71778;BME280;59609;52.430;4.668;2024-03-25T04:02:52;100723.69;;;2.92;100.00
71778;BME280;59609;52.430;4.668;2024-03-25T04:05:18;100736.81;;;2.87;100.00
71778;BME280;59609;52.430;4.668;2024-03-25T04:07:43;100734.69;;;2.79;100.00
71778;BME280;59609;52.430;4.668;2024-03-25T04:10:09;100736.63;;;2.77;100.00
71778;BME280;59609;52.430;4.668;2024-03-25T04:12:34;100724.00;;;2.65;100.00
71778;BME280;59609;52.430;4.668;2024-03-25T04:15:02;100699.63;;;2.52;100.00
71778;BME280;59609;52.430;4.668;2024-03-25T04:17:27;100730.81;;;2.71;100.00
71778;BME280;59609;52.430;4.668;2024-03-25T04:19:53;100739.22;;;2.68;100.00
71778;BME280;59609;52.430;4.668;2024-03-25T04:22:18;100730.56;;;2.63;100.00
71778;BME280;59609;52.430;4.668;2024-03-25T04:24:44;100740.59;;;2.73;100.00
71778;BME280;59609;52.430;4.668;2024-03-25T04:27:09;100735.03;;;2.75;100.00
71778;BME280;59609;52.430;4.668;2024-03-25T04:29:35;100734.44;;;2.82;100.00
71778;BME280;59609;52.430;4.668;2024-03-25T04:32:00;100722.78;;;2.80;100.00
71778;BME280;59609;52.430;4.668;2024-03-25T04:34:27;100721.19;;;2.78;100.00
71778;BME280;59609;52.430;4.668;2024-03-25T04:36:52;100742.25;;;2.87;100.00
71778;BME280;59609;52.430;4.668;2024-03-25T04:39:18;100739.13;;;2.80;100.00
71778;BME280;59609;52.430;4.668;2024-03-25T04:41:45;100734.06;;;2.76;100.00
71778;BME280;59609;52.430;4.668;2024-03-25T04:44:11;100732.31;;;2.75;100.00
71778;BME280;59609;52.430;4.668;2024-03-25T04:46:36;100737.75;;;2.75;100.00
71778;BME280;59609;52.430;4.668;2024-03-25T04:49:02;100741.44;;;2.74;100.00
71778;BME280;59609;52.430;4.668;2024-03-25T04:51:27;100734.28;;;2.73;100.00
71778;BME280;59609;52.430;4.668;2024-03-25T04:53:53;100721.53;;;2.62;100.00
71778;BME280;59609;52.430;4.668;2024-03-25T04:56:18;100739.97;;;2.70;100.00
71778;BME280;59609;52.430;4.668;2024-03-25T04:58:44;100742.19;;;2.65;100.00
71778;BME280;59609;52.430;4.668;2024-03-25T05:01:09;100727.56;;;2.54;100.00
71778;BME280;59609;52.430;4.668;2024-03-25T05:03:34;100730.28;;;2.54;100.00
71778;BME280;59609;52.430;4.668;2024-03-25T05:06:00;100722.84;;;2.45;100.00
71778;BME280;59609;52.430;4.668;2024-03-25T05:08:25;100744.50;;;2.58;100.00
71778;BME280;59609;52.430;4.668;2024-03-25T05:10:50;100743.38;;;2.60;100.00
71778;BME280;59609;52.430;4.668;2024-03-25T05:13:16;100717.06;;;2.50;100.00
71778;BME280;59609;52.430;4.668;2024-03-25T05:15:49;100748.72;;;2.62;100.00
71778;BME280;59609;52.430;4.668;2024-03-25T05:18:15;100746.97;;;2.61;100.00
71778;BME280;59609;52.430;4.668;2024-03-25T05:20:40;100731.16;;;2.55;100.00
71778;BME280;59609;52.430;4.668;2024-03-25T05:23:06;100747.84;;;2.62;100.00
71778;BME280;59609;52.430;4.668;2024-03-25T05:25:32;100748.59;;;2.64;100.00
71778;BME280;59609;52.430;4.668;2024-03-25T05:27:57;100742.41;;;2.62;100.00
71778;BME280;59609;52.430;4.668;2024-03-25T05:30:23;100754.94;;;2.75;100.00
71778;BME280;59609;52.430;4.668;2024-03-25T05:32:48;100744.16;;;2.74;100.00
71778;BME280;59609;52.430;4.668;2024-03-25T05:35:13;100757.06;;;2.83;100.00
71778;BME280;59609;52.430;4.668;2024-03-25T05:37:39;100750.16;;;3.01;100.00
71778;BME280;59609;52.430;4.668;2024-03-25T05:40:04;100741.06;;;3.13;100.00
71778;BME280;59609;52.430;4.668;2024-03-25T05:42:30;100736.09;;;3.18;100.00
71778;BME280;59609;52.430;4.668;2024-03-25T05:44:55;100743.78;;;3.35;100.00
71778;BME280;59609;52.430;4.668;2024-03-25T05:47:20;100737.22;;;3.38;100.00
71778;BME280;59609;52.430;4.668;2024-03-25T05:49:46;100721.50;;;3.41;100.00
71778;BME280;59609;52.430;4.668;2024-03-25T05:52:12;100734.50;;;3.60;100.00
71778;BME280;59609;52.430;4.668;2024-03-25T05:54:37;100722.94;;;3.79;100.00
71778;BME280;59609;52.430;4.668;2024-03-25T05:57:03;100738.72;;;4.07;100.00
71778;BME280;59609;52.430;4.668;2024-03-25T05:59:28;100749.06;;;4.24;100.00
71778;BME280;59609;52.430;4.668;2024-03-25T06:01:54;100732.56;;;4.37;100.00
71778;BME280;59609;52.430;4.668;2024-03-25T06:04:19;100744.22;;;4.59;100.00
71778;BME280;59609;52.430;4.668;2024-03-25T06:06:45;100710.56;;;4.49;100.00
71778;BME280;59609;52.430;4.668;2024-03-25T06:09:10;100720.22;;;4.53;100.00
71778;BME280;59609;52.430;4.668;2024-03-25T06:11:35;100735.78;;;4.62;100.00
71778;BME280;59609;52.430;4.668;2024-03-25T06:14:01;100735.53;;;4.65;100.00
71778;BME280;59609;52.430;4.668;2024-03-25T06:16:26;100724.00;;;4.62;100.00
71778;BME280;59609;52.430;4.668;2024-03-25T06:18:53;100726.47;;;4.65;100.00
71778;BME280;59609;52.430;4.668;2024-03-25T06:21:18;100716.72;;;4.51;100.00
71778;BME280;59609;52.430;4.668;2024-03-25T06:23:43;100725.06;;;4.50;100.00
71778;BME280;59609;52.430;4.668;2024-03-25T06:26:09;100715.44;;;4.35;100.00
71778;BME280;59609;52.430;4.668;2024-03-25T06:28:34;100723.25;;;4.39;100.00
71778;BME280;59609;52.430;4.668;2024-03-25T06:31:00;100717.66;;;4.41;100.00
71778;BME280;59609;52.430;4.668;2024-03-25T06:33:44;100714.63;;;4.76;100.00
71778;BME280;59609;52.430;4.668;2024-03-25T06:36:28;100710.47;;;4.81;100.00
71778;BME280;59609;52.430;4.668;2024-03-25T06:38:53;100721.53;;;5.00;100.00
71778;BME280;59609;52.430;4.668;2024-03-25T06:41:19;100709.59;;;5.01;100.00
71778;BME280;59609;52.430;4.668;2024-03-25T06:43:44;100699.25;;;5.26;100.00
71778;BME280;59609;52.430;4.668;2024-03-25T06:46:09;100720.59;;;5.41;100.00
71778;BME280;59609;52.430;4.668;2024-03-25T06:48:35;100689.09;;;5.37;100.00
71778;BME280;59609;52.430;4.668;2024-03-25T06:51:00;100699.63;;;5.51;100.00
71778;BME280;59609;52.430;4.668;2024-03-25T06:53:27;100704.59;;;5.67;100.00
71778;BME280;59609;52.430;4.668;2024-03-25T06:55:57;100696.88;;;5.42;100.00
71778;BME280;59609;52.430;4.668;2024-03-25T06:58:25;100697.47;;;5.45;100.00
71778;BME280;59609;52.430;4.668;2024-03-25T07:00:51;100712.66;;;5.68;100.00
71778;BME280;59609;52.430;4.668;2024-03-25T07:03:17;100716.22;;;5.90;100.00
71778;BME280;59609;52.430;4.668;2024-03-25T07:05:50;100703.13;;;6.03;100.00
71778;BME280;59609;52.430;4.668;2024-03-25T07:08:20;100708.22;;;6.36;100.00
71778;BME280;59609;52.430;4.668;2024-03-25T07:10:46;100692.66;;;6.27;100.00
71778;BME280;59609;52.430;4.668;2024-03-25T07:13:12;100697.09;;;6.47;100.00
71778;BME280;59609;52.430;4.668;2024-03-25T07:15:38;100708.78;;;6.59;100.00
71778;BME280;59609;52.430;4.668;2024-03-25T07:18:04;100707.03;;;6.87;100.00
71778;BME280;59609;52.430;4.668;2024-03-25T07:20:30;100710.84;;;7.13;100.00
71778;BME280;59609;52.430;4.668;2024-03-25T07:22:56;100718.91;;;7.14;100.00
71778;BME280;59609;52.430;4.668;2024-03-25T07:25:23;100684.34;;;7.04;100.00
71778;BME280;59609;52.430;4.668;2024-03-25T07:27:48;100703.69;;;7.39;100.00
71778;BME280;59609;52.430;4.668;2024-03-25T07:30:16;100703.97;;;7.46;100.00
71778;BME280;59609;52.430;4.668;2024-03-25T07:32:42;100712.22;;;7.73;100.00
71778;BME280;59609;52.430;4.668;2024-03-25T07:35:07;100722.56;;;7.79;100.00
71778;BME280;59609;52.430;4.668;2024-03-25T07:37:35;100701.19;;;7.83;100.00
71778;BME280;59609;52.430;4.668;2024-03-25T07:40:00;100730.47;;;8.09;100.00
71778;BME280;59609;52.430;4.668;2024-03-25T07:42:26;100718.50;;;8.10;100.00
71778;BME280;59609;52.430;4.668;2024-03-25T07:44:51;100725.94;;;8.45;100.00
71778;BME280;59609;52.430;4.668;2024-03-25T07:47:16;100731.34;;;8.27;100.00
71778;BME280;59609;52.430;4.668;2024-03-25T07:49:42;100742.47;;;8.36;100.00
71778;BME280;59609;52.430;4.668;2024-03-25T07:52:07;100703.63;;;7.86;100.00
71778;BME280;59609;52.430;4.668;2024-03-25T07:54:32;100750.16;;;8.32;100.00
71778;BME280;59609;52.430;4.668;2024-03-25T07:56:58;100749.16;;;8.68;100.00
71778;BME280;59609;52.430;4.668;2024-03-25T07:59:24;100734.41;;;8.69;100.00
71778;BME280;59609;52.430;4.668;2024-03-25T08:01:49;100751.53;;;8.63;100.00
71778;BME280;59609;52.430;4.668;2024-03-25T08:04:14;100734.22;;;8.36;100.00
71778;BME280;59609;52.430;4.668;2024-03-25T08:06:40;100748.75;;;8.46;100.00
71778;BME280;59609;52.430;4.668;2024-03-25T08:09:05;100746.94;;;8.54;100.00
71778;BME280;59609;52.430;4.668;2024-03-25T08:11:31;100752.56;;;9.06;100.00
71778;BME280;59609;52.430;4.668;2024-03-25T08:13:57;100750.53;;;9.08;100.00
71778;BME280;59609;52.430;4.668;2024-03-25T08:16:22;100750.94;;;8.77;100.00
71778;BME280;59609;52.430;4.668;2024-03-25T08:18:48;100739.94;;;8.95;100.00
71778;BME280;59609;52.430;4.668;2024-03-25T08:21:13;100748.22;;;9.21;100.00
71778;BME280;59609;52.430;4.668;2024-03-25T08:23:38;100755.34;;;9.31;100.00
71778;BME280;59609;52.430;4.668;2024-03-25T08:26:05;100730.69;;;9.48;100.00
71778;BME280;59609;52.430;4.668;2024-03-25T08:28:31;100754.75;;;9.46;100.00
71778;BME280;59609;52.430;4.668;2024-03-25T08:30:56;100753.78;;;9.29;100.00
71778;BME280;59609;52.430;4.668;2024-03-25T08:33:21;100748.78;;;9.50;100.00
71778;BME280;59609;52.430;4.668;2024-03-25T08:35:47;100742.03;;;9.19;100.00
71778;BME280;59609;52.430;4.668;2024-03-25T08:38:12;100720.81;;;9.63;100.00
71778;BME280;59609;52.430;4.668;2024-03-25T08:40:37;100745.59;;;9.63;100.00
71778;BME280;59609;52.430;4.668;2024-03-25T08:43:03;100741.78;;;9.30;100.00
71778;BME280;59609;52.430;4.668;2024-03-25T08:45:28;100733.72;;;9.62;100.00
71778;BME280;59609;52.430;4.668;2024-03-25T08:47:54;100758.88;;;9.75;100.00
71778;BME280;59609;52.430;4.668;2024-03-25T08:50:19;100740.56;;;9.92;100.00
71778;BME280;59609;52.430;4.668;2024-03-25T08:52:44;100745.34;;;9.82;100.00
71778;BME280;59609;52.430;4.668;2024-03-25T08:55:10;100741.09;;;9.62;100.00
71778;BME280;59609;52.430;4.668;2024-03-25T08:57:36;100736.19;;;9.73;100.00
71778;BME280;59609;52.430;4.668;2024-03-25T09:00:02;100748.22;;;9.72;100.00
71778;BME280;59609;52.430;4.668;2024-03-25T09:02:29;100744.13;;;9.84;100.00
71778;BME280;59609;52.430;4.668;2024-03-25T09:04:54;100734.59;;;10.05;100.00
71778;BME280;59609;52.430;4.668;2024-03-25T09:07:19;100738.47;;;10.20;100.00
71778;BME280;59609;52.430;4.668;2024-03-25T09:09:45;100738.00;;;9.91;100.00
71778;BME280;59609;52.430;4.668;2024-03-25T09:12:29;100735.06;;;9.92;100.00
71778;BME280;59609;52.430;4.668;2024-03-25T09:14:54;100733.56;;;10.06;100.00
71778;BME280;59609;52.430;4.668;2024-03-25T09:17:20;100732.50;;;9.91;100.00
71778;BME280;59609;52.430;4.668;2024-03-25T09:19:45;100713.88;;;10.34;100.00
71778;BME280;59609;52.430;4.668;2024-03-25T09:22:10;100716.81;;;10.41;100.00
71778;BME280;59609;52.430;4.668;2024-03-25T09:24:35;100719.81;;;10.06;100.00
71778;BME280;59609;52.430;4.668;2024-03-25T09:27:01;100723.56;;;10.47;100.00
71778;BME280;59609;52.430;4.668;2024-03-25T09:29:26;100707.94;;;10.05;100.00
71778;BME280;59609;52.430;4.668;2024-03-25T09:31:52;100702.84;;;9.76;100.00
71778;BME280;59609;52.430;4.668;2024-03-25T09:34:17;100709.94;;;10.29;100.00
71778;BME280;59609;52.430;4.668;2024-03-25T09:36:42;100695.47;;;10.27;100.00
71778;BME280;59609;52.430;4.668;2024-03-25T09:39:08;100712.16;;;10.25;100.00
71778;BME280;59609;52.430;4.668;2024-03-25T09:41:35;100708.63;;;10.57;100.00
71778;BME280;59609;52.430;4.668;2024-03-25T09:44:03;100707.41;;;10.76;100.00
71778;BME280;59609;52.430;4.668;2024-03-25T09:46:30;100702.75;;;10.60;100.00
71778;BME280;59609;52.430;4.668;2024-03-25T09:48:56;100680.03;;;10.82;100.00
71778;BME280;59609;52.430;4.668;2024-03-25T09:51:21;100699.31;;;10.99;100.00
71778;BME280;59609;52.430;4.668;2024-03-25T09:53:47;100693.09;;;10.48;100.00
71778;BME280;59609;52.430;4.668;2024-03-25T09:56:13;100688.63;;;10.71;100.00
71778;BME280;59609;52.430;4.668;2024-03-25T09:58:39;100701.06;;;10.67;100.00
71778;BME280;59609;52.430;4.668;2024-03-25T10:01:05;100691.03;;;11.15;100.00
71778;BME280;59609;52.430;4.668;2024-03-25T10:03:31;100690.03;;;10.75;100.00
71778;BME280;59609;52.430;4.668;2024-03-25T10:05:56;100682.28;;;10.87;100.00
71778;BME280;59609;52.430;4.668;2024-03-25T10:08:22;100693.97;;;10.89;100.00
71778;BME280;59609;52.430;4.668;2024-03-25T10:10:47;100678.47;;;10.88;100.00
71778;BME280;59609;52.430;4.668;2024-03-25T10:13:13;100679.00;;;11.00;100.00
71778;BME280;59609;52.430;4.668;2024-03-25T10:15:38;100682.25;;;11.11;100.00
71778;BME280;59609;52.430;4.668;2024-03-25T10:18:03;100691.41;;;10.96;100.00
71778;BME280;59609;52.430;4.668;2024-03-25T10:20:29;100682.75;;;11.15;100.00
71778;BME280;59609;52.430;4.668;2024-03-25T10:22:54;100678.63;;;11.19;100.00
71778;BME280;59609;52.430;4.668;2024-03-25T10:25:28;100674.31;;;11.08;100.00
71778;BME280;59609;52.430;4.668;2024-03-25T10:28:01;100677.94;;;11.09;100.00
71778;BME280;59609;52.430;4.668;2024-03-25T10:30:27;100676.22;;;11.08;100.00
71778;BME280;59609;52.430;4.668;2024-03-25T10:33:02;100682.78;;;10.66;100.00
71778;BME280;59609;52.430;4.668;2024-03-25T10:35:31;100648.69;;;10.75;100.00
71778;BME280;59609;52.430;4.668;2024-03-25T10:37:59;100664.19;;;10.93;100.00
71778;BME280;59609;52.430;4.668;2024-03-25T10:40:29;100670.84;;;11.14;100.00
71778;BME280;59609;52.430;4.668;2024-03-25T10:43:06;100657.78;;;11.08;100.00
71778;BME280;59609;52.430;4.668;2024-03-25T10:45:34;100666.22;;;11.07;100.00
71778;BME280;59609;52.430;4.668;2024-03-25T10:48:15;100652.22;;;11.41;100.00
71778;BME280;59609;52.430;4.668;2024-03-25T10:50:43;100650.38;;;11.72;100.00
71778;BME280;59609;52.430;4.668;2024-03-25T10:53:10;100649.16;;;11.74;100.00
71778;BME280;59609;52.430;4.668;2024-03-25T10:55:37;100648.38;;;11.42;100.00
71778;BME280;59609;52.430;4.668;2024-03-25T10:58:03;100637.84;;;11.53;100.00
71778;BME280;59609;52.430;4.668;2024-03-25T11:00:29;100638.34;;;11.96;100.00
71778;BME280;59609;52.430;4.668;2024-03-25T11:02:55;100658.50;;;11.73;100.00
71778;BME280;59609;52.430;4.668;2024-03-25T11:05:22;100650.91;;;12.06;100.00
71778;BME280;59609;52.430;4.668;2024-03-25T11:07:48;100642.97;;;12.57;100.00
71778;BME280;59609;52.430;4.668;2024-03-25T11:10:13;100613.28;;;11.74;100.00
71778;BME280;59609;52.430;4.668;2024-03-25T11:12:40;100641.44;;;12.54;100.00
71778;BME280;59609;52.430;4.668;2024-03-25T11:15:07;100637.00;;;12.45;100.00
71778;BME280;59609;52.430;4.668;2024-03-25T11:17:33;100621.59;;;13.11;100.00
71778;BME280;59609;52.430;4.668;2024-03-25T11:20:11;100643.81;;;12.34;100.00
71778;BME280;59609;52.430;4.668;2024-03-25T11:22:49;100601.19;;;11.75;100.00
71778;BME280;59609;52.430;4.668;2024-03-25T11:25:16;100638.34;;;12.49;100.00
71778;BME280;59609;52.430;4.668;2024-03-25T11:27:43;100618.41;;;12.16;100.00
71778;BME280;59609;52.430;4.668;2024-03-25T11:30:13;100619.13;;;12.10;100.00
71778;BME280;59609;52.430;4.668;2024-03-25T11:32:54;100612.78;;;12.02;100.00
71778;BME280;59609;52.430;4.668;2024-03-25T11:35:20;100617.53;;;12.16;100.00
71778;BME280;59609;52.430;4.668;2024-03-25T11:37:46;100610.75;;;12.86;100.00
71778;BME280;59609;52.430;4.668;2024-03-25T11:40:13;100601.91;;;13.06;100.00
71778;BME280;59609;52.430;4.668;2024-03-25T11:42:40;100586.00;;;13.22;100.00
71778;BME280;59609;52.430;4.668;2024-03-25T11:45:23;100600.59;;;13.31;100.00
71778;BME280;59609;52.430;4.668;2024-03-25T11:47:50;100600.13;;;13.13;100.00
71778;BME280;59609;52.430;4.668;2024-03-25T11:50:17;100595.78;;;12.96;100.00
71778;BME280;59609;52.430;4.668;2024-03-25T11:52:43;100578.25;;;12.28;100.00
71778;BME280;59609;52.430;4.668;2024-03-25T11:55:09;100578.03;;;11.84;100.00
71778;BME280;59609;52.430;4.668;2024-03-25T11:57:40;100596.13;;;12.41;100.00
71778;BME280;59609;52.430;4.668;2024-03-25T12:00:07;100598.56;;;12.13;100.00
71778;BME280;59609;52.430;4.668;2024-03-25T12:02:36;100574.66;;;11.66;100.00
71778;BME280;59609;52.430;4.668;2024-03-25T12:05:01;100583.34;;;12.39;100.00
71778;BME280;59609;52.430;4.668;2024-03-25T12:07:27;100568.97;;;12.96;100.00
71778;BME280;59609;52.430;4.668;2024-03-25T12:09:52;100570.22;;;13.08;100.00
71778;BME280;59609;52.430;4.668;2024-03-25T12:12:36;100577.63;;;12.78;100.00
71778;BME280;59609;52.430;4.668;2024-03-25T12:15:03;100567.69;;;12.69;100.00
71778;BME280;59609;52.430;4.668;2024-03-25T12:17:29;100556.84;;;12.30;100.00
71778;BME280;59609;52.430;4.668;2024-03-25T12:20:08;100545.81;;;12.97;100.00
71778;BME280;59609;52.430;4.668;2024-03-25T12:22:34;100560.09;;;13.74;100.00
71778;BME280;59609;52.430;4.668;2024-03-25T12:25:02;100549.88;;;13.74;100.00
71778;BME280;59609;52.430;4.668;2024-03-25T12:27:29;100556.69;;;13.57;100.00
71778;BME280;59609;52.430;4.668;2024-03-25T12:30:08;100557.69;;;13.85;100.00
71778;BME280;59609;52.430;4.668;2024-03-25T12:34:59;100554.38;;;12.13;100.00
71778;BME280;59609;52.430;4.668;2024-03-25T12:37:26;100550.28;;;11.78;100.00
71778;BME280;59609;52.430;4.668;2024-03-25T12:39:52;100533.28;;;11.66;100.00
71778;BME280;59609;52.430;4.668;2024-03-25T12:42:17;100553.97;;;11.62;100.00
71778;BME280;59609;52.430;4.668;2024-03-25T12:44:43;100541.53;;;11.66;100.00
71778;BME280;59609;52.430;4.668;2024-03-25T12:47:09;100550.78;;;12.04;100.00